Погода Рамотсвана неделю

Кгатленг, Ботсвана

16 - 22 июля
  • 16июля
    Сегодня
    +4°
    +25°
    Ясно и безоблачно
    ВремяПогодаТемператураВлажностьДавлениеВетер, м/сВероятность осадков
    02:00Ясно и безоблачно+7°C26 %679 мм2.2 м/с1 %
    05:00Ясно и безоблачно+5°C31 %678 мм2.5 м/с1 %
    08:00Ясно и безоблачно+8°C27 %680 мм2.5 м/с1 %
    11:00Ясно и безоблачно+21°C12 %682 мм0.5 м/с1 %
    14:00Ясно и безоблачно+25°C13 %681 мм2.2 м/с1 %
    17:00Ясно и безоблачно+23°C13 %680 мм1.8 м/с1 %
    20:00Ясно и безоблачно+14°C19 %678 мм1.5 м/с1 %
    23:00Ясно и безоблачно+10°C24 %678 мм0.7 м/с1 %
  • 17июля
    Среда
    +7°
    +27°
    Ясно и безоблачно
    ВремяПогодаТемператураВлажностьДавлениеВетер, м/сВероятность осадков
    02:00Ясно и безоблачно+6°C33 %677 мм1.7 м/с1 %
    05:00Ясно и безоблачно+5°C38 %677 мм2.2 м/с1 %
    08:00Ясно и безоблачно+9°C30 %679 мм0.5 м/с1 %
    11:00Ясно и безоблачно+22°C13 %683 мм1.3 м/с1 %
    14:00Ясно и безоблачно+27°C8 %682 мм3.2 м/с1 %
    17:00Ясно и безоблачно+24°C13 %680 мм1.6 м/с1 %
    20:00Ясно и безоблачно+15°C18 %678 мм3.0 м/с1 %
    23:00Ясно и безоблачно+9°C24 %678 мм3.0 м/с1 %
  • 18июля
    Четверг
    +8°
    +29°
    Ясно и безоблачно
    ВремяПогодаТемператураВлажностьДавлениеВетер, м/сВероятность осадков
    02:00Ясно и безоблачно+7°C28 %677 мм2.8 м/с1 %
    05:00Ясно и безоблачно+9°C26 %678 мм1.2 м/с1 %
    08:00Ясно и безоблачно+11°C35 %680 мм0.7 м/с1 %
    11:00Ясно и безоблачно+23°C18 %683 мм3.0 м/с1 %
    14:00Ясно и безоблачно+27°C9 %681 мм3.7 м/с1 %
    17:00Ясно и безоблачно+26°C10 %680 мм1.9 м/с1 %
    20:00Ясно и безоблачно+15°C18 %678 мм2.7 м/с1 %
    23:00Ясно и безоблачно+12°C21 %678 мм1.8 м/с1 %
  • 19июля
    Пятница
    +6°
    +29°
    Ясно и безоблачно
    ВремяПогодаТемператураВлажностьДавлениеВетер, м/сВероятность осадков
    02:00Ясно и безоблачно+11°C25 %677 мм2.4 м/с1 %
    05:00Ясно и безоблачно+10°C24 %677 мм0.8 м/с1 %
    08:00Ясно и безоблачно+11°C29 %679 мм0.3 м/с1 %
    11:00Ясно и безоблачно+23°C15 %682 мм0.2 м/с1 %
    14:00Ясно и безоблачно+28°C10 %680 мм3.4 м/с1 %
    17:00Ясно и безоблачно+26°C17 %679 мм1.8 м/с1 %
    20:00Ясно и безоблачно+13°C20 %677 мм2.7 м/с1 %
    23:00Ясно и безоблачно+12°C19 %677 мм2.4 м/с1 %
  • 20июля
    Суббота
    +6°
    +28°
    Ясно и безоблачно
    ВремяПогодаТемператураВлажностьДавлениеВетер, м/сВероятность осадков
    02:00Ясно и безоблачно+10°C21 %677 мм2.2 м/с1 %
    05:00Облачно с прояснениями+8°C29 %677 мм2.2 м/с1 %
    08:00Ясно и безоблачно+10°C31 %679 мм2.4 м/с1 %
    11:00Ясно и безоблачно+23°C15 %681 мм0.4 м/с1 %
    14:00Ясно и безоблачно+27°C10 %680 мм1.1 м/с1 %
    17:00Ясно и безоблачно+26°C12 %679 мм1.3 м/с1 %
    20:00Практически безоблачно+15°C17 %678 мм2.5 м/с1 %
    23:00Небольшая облачность+11°C25 %678 мм2.3 м/с1 %
Мы используем cookies
Соглашаюсь